Time;durP1;ratioP1;P1;durP2;ratioP2;P2;SDS_P1;SDS_P2;PMS_P1;PMS_P2;Temp;Humidity;BMP_temperature;BMP_pressure;BME280_temperature;BME280_humidity;BME280_pressure;Samples;Min_cycle;Max_cycle;Signal;HPM_P1;HPM_P2
2023/12/11 00:00:18;;;;;;;14.35;3.22;;;15.40;88.20;;;;;;4203670;28;20104;-51
2023/12/11 00:02:59;;;;;;;15.60;3.13;;;15.40;88.10;;;;;;4184563;28;20060;-50
2023/12/11 00:05:42;;;;;;;12.20;2.88;;;15.40;87.90;;;;;;4186473;28;20051;-50
2023/12/11 00:08:23;;;;;;;17.42;3.70;;;15.40;87.80;;;;;;4202899;27;20441;-51
2023/12/11 00:11:05;;;;;;;13.63;2.97;;;15.40;87.90;;;;;;4190786;27;20059;-50
2023/12/11 00:13:46;;;;;;;15.82;3.70;;;15.40;88.00;;;;;;4191433;28;20580;-51
2023/12/11 00:16:27;;;;;;;13.73;2.63;;;15.40;88.90;;;;;;4203434;27;20083;-50
2023/12/11 00:19:09;;;;;;;14.00;3.20;;;15.40;88.20;;;;;;4194417;28;20058;-51
2023/12/11 00:21:52;;;;;;;22.17;3.75;;;15.40;88.20;;;;;;4202030;28;20071;-52
2023/12/11 00:24:34;;;;;;;18.13;4.05;;;15.40;88.10;;;;;;4185692;28;20110;-52
2023/12/11 00:27:18;;;;;;;15.90;3.45;;;15.40;88.00;;;;;;4203776;28;20050;-53
2023/12/11 00:29:59;;;;;;;15.23;3.65;;;15.30;87.70;;;;;;4188559;28;20059;-51
2023/12/11 00:32:40;;;;;;;18.55;3.40;;;15.40;87.90;;;;;;4183872;28;20051;-52
2023/12/11 00:35:22;;;;;;;16.75;3.60;;;15.30;87.80;;;;;;4189766;28;20506;-52
2023/12/11 00:38:04;;;;;;;21.33;4.15;;;15.30;88.00;;;;;;4170059;28;20048;-52
2023/12/11 00:40:46;;;;;;;14.82;2.90;;;15.30;88.10;;;;;;4160692;28;20059;-53
2023/12/11 00:43:27;;;;;;;18.33;3.05;;;15.30;88.00;;;;;;4182396;28;20095;-52
2023/12/11 00:46:24;;;;;;;17.30;4.05;;;15.30;87.80;;;;;;4183698;28;20048;-55
2023/12/11 00:49:04;;;;;;;;;;;15.30;88.00;;;;;;4185772;28;20387;-55
2023/12/11 00:51:46;;;;;;;21.60;4.47;;;15.30;88.40;;;;;;4186854;28;19927;-54
2023/12/11 00:54:28;;;;;;;17.20;3.15;;;15.30;88.50;;;;;;4186868;28;20059;-53
2023/12/11 00:57:12;;;;;;;34.67;4.70;;;15.30;88.40;;;;;;4200467;28;20051;-54
2023/12/11 00:59:53;;;;;;;24.30;4.43;;;15.30;88.40;;;;;;4196898;28;20055;-54
2023/12/11 01:02:34;;;;;;;21.98;3.95;;;15.30;88.40;;;;;;4201861;28;20105;-55
2023/12/11 01:05:15;;;;;;;23.73;4.47;;;15.30;88.50;;;;;;4193938;27;20047;-55
2023/12/11 01:07:56;;;;;;;23.00;5.80;;;15.30;88.50;;;;;;4177016;28;20072;-53
2023/12/11 01:10:38;;;;;;;21.58;4.15;;;15.30;88.40;;;;;;4185781;28;20442;-55
2023/12/11 01:13:19;;;;;;;19.55;3.67;;;15.30;88.50;;;;;;4201850;28;20051;-53
2023/12/11 01:16:00;;;;;;;22.20;4.55;;;15.30;88.60;;;;;;4201134;27;20461;-53
2023/12/11 01:18:42;;;;;;;19.88;4.32;;;15.30;88.60;;;;;;4186456;28;20506;-55
2023/12/11 01:21:27;;;;;;;34.47;5.07;;;15.20;88.70;;;;;;4192144;28;20268;-55
2023/12/11 01:24:08;;;;;;;31.95;4.68;;;15.20;88.70;;;;;;4186419;28;20044;-56
2023/12/11 01:26:50;;;;;;;23.75;4.60;;;15.20;88.60;;;;;;4202429;28;20059;-56
2023/12/11 01:29:32;;;;;;;26.52;5.28;;;15.20;88.50;;;;;;4202378;28;20046;-54
2023/12/11 01:32:13;;;;;;;29.40;5.50;;;15.20;88.50;;;;;;4200642;28;20059;-55
2023/12/11 01:34:54;;;;;;;19.15;3.85;;;15.20;88.60;;;;;;4188520;28;20051;-55
2023/12/11 01:37:37;;;;;;;27.77;5.38;;;15.20;88.50;;;;;;4202507;28;20487;-56
2023/12/11 01:40:18;;;;;;;21.70;5.25;;;15.20;88.50;;;;;;4199549;28;20051;-56
2023/12/11 01:43:13;;;;;;;24.23;4.60;;;15.20;88.70;;;;;;4199683;27;20442;-53
2023/12/11 01:46:04;;;;;;;21.83;5.20;;;15.20;88.50;;;;;;4199566;28;20117;-56
2023/12/11 01:48:45;;;;;;;30.55;5.85;;;15.20;88.70;;;;;;4200794;28;20495;-56
2023/12/11 01:51:26;;;;;;;24.80;5.00;;;15.20;88.70;;;;;;4203163;27;20082;-52
2023/12/11 01:54:07;;;;;;;;;;;15.20;88.70;;;;;;4203009;28;20051;-51
2023/12/11 01:56:48;;;;;;;17.88;4.10;;;15.20;88.80;;;;;;4203721;28;20004;-51
2023/12/11 01:59:31;;;;;;;25.83;5.32;;;15.20;89.30;;;;;;4203497;28;20052;-52
2023/12/11 02:02:12;;;;;;;28.13;4.75;;;15.10;88.80;;;;;;4203159;28;20055;-53
2023/12/11 02:04:54;;;;;;;20.88;4.85;;;15.10;88.80;;;;;;4203040;28;20051;-53
2023/12/11 02:07:35;;;;;;;;;;;15.10;88.70;;;;;;4198200;27;20055;-52
2023/12/11 02:10:16;;;;;;;24.38;4.22;;;15.10;88.70;;;;;;4202402;28;20126;-51
2023/12/11 02:12:57;;;;;;;24.58;4.68;;;15.10;89.20;;;;;;4205798;28;20423;-52
2023/12/11 02:15:41;;;;;;;25.30;4.35;;;15.10;88.90;;;;;;4205205;28;20071;-54
2023/12/11 02:18:22;;;;;;;24.52;4.50;;;15.10;88.70;;;;;;4190416;28;20159;-54
2023/12/11 02:21:03;;;;;;;21.27;4.57;;;15.10;88.90;;;;;;4206577;28;20493;-52
2023/12/11 02:23:52;;;;;;;22.95;4.95;;;15.10;88.90;;;;;;4205435;28;20054;-53
2023/12/11 02:26:34;;;;;;;17.02;4.13;;;15.10;88.90;;;;;;4175724;28;20059;-52
2023/12/11 02:29:15;;;;;;;20.83;3.75;;;15.10;88.80;;;;;;4198005;28;20210;-52
2023/12/11 02:31:56;;;;;;;20.65;3.95;;;15.10;88.50;;;;;;4202307;28;20577;-53
2023/12/11 02:34:38;;;;;;;16.55;4.13;;;15.10;89.30;;;;;;4206087;28;20055;-53
2023/12/11 02:37:18;;;;;;;23.25;4.35;;;15.10;89.20;;;;;;4206532;28;20062;-51
2023/12/11 02:40:00;;;;;;;16.00;4.13;;;15.30;89.40;;;;;;4205765;28;20101;-53
2023/12/11 02:42:48;;;;;;;11.05;2.90;;;15.30;89.30;;;;;;4174810;28;20408;-52
2023/12/11 02:45:29;;;;;;;26.55;4.93;;;15.40;89.10;;;;;;4198380;27;20506;-50
2023/12/11 02:48:10;;;;;;;18.90;3.70;;;15.50;89.00;;;;;;4189910;28;20055;-51
2023/12/11 02:50:51;;;;;;;27.83;5.88;;;15.50;88.80;;;;;;4199555;27;20077;-51
2023/12/11 02:53:32;;;;;;;23.02;4.60;;;15.60;88.60;;;;;;4203821;28;20092;-51
2023/12/11 02:56:13;;;;;;;21.73;4.32;;;15.60;88.30;;;;;;4197476;28;20097;-53
2023/12/11 02:58:56;;;;;;;22.75;3.72;;;15.60;88.10;;;;;;4189451;28;20582;-51
2023/12/11 03:01:39;;;;;;;21.88;4.57;;;15.60;88.00;;;;;;4194416;28;20145;-53
2023/12/11 03:04:21;;;;;;;25.73;5.32;;;15.60;88.10;;;;;;4204539;28;20059;-52
2023/12/11 03:07:02;;;;;;;21.55;3.90;;;15.60;88.20;;;;;;4172360;28;20055;-51
2023/12/11 03:09:44;;;;;;;22.48;4.57;;;15.60;88.20;;;;;;4197006;27;20094;-52
2023/12/11 03:12:25;;;;;;;21.02;5.18;;;15.60;88.10;;;;;;4187259;28;20605;-54
2023/12/11 03:15:09;;;;;;;19.92;4.80;;;15.70;88.00;;;;;;4169177;28;20106;-51
2023/12/11 03:17:50;;;;;;;23.25;4.68;;;15.70;87.80;;;;;;4203257;28;20451;-50
2023/12/11 03:20:31;;;;;;;24.23;4.18;;;15.70;87.90;;;;;;4202447;28;20173;-55
2023/12/11 03:23:12;;;;;;;23.63;4.28;;;15.70;87.80;;;;;;4192224;28;20089;-52
2023/12/11 03:25:53;;;;;;;22.23;5.97;;;15.80;87.60;;;;;;4205256;28;20051;-51
2023/12/11 03:28:34;;;;;;;25.88;4.65;;;15.80;87.30;;;;;;4204558;28;20148;-52
2023/12/11 03:31:17;;;;;;;24.60;4.40;;;15.80;87.20;;;;;;4203738;28;20051;-51
2023/12/11 03:33:58;;;;;;;27.75;4.70;;;15.80;87.20;;;;;;4192371;28;20407;-53
2023/12/11 03:36:39;;;;;;;30.02;5.32;;;15.80;87.30;;;;;;4203566;28;20387;-51
2023/12/11 03:39:20;;;;;;;34.75;6.32;;;15.90;87.20;;;;;;4196243;28;20059;-51
2023/12/11 03:42:01;;;;;;;27.00;4.93;;;16.00;87.10;;;;;;4193756;28;20105;-51
2023/12/11 03:44:42;;;;;;;22.15;4.20;;;16.00;86.80;;;;;;4197959;28;20137;-51
2023/12/11 03:47:24;;;;;;;26.52;5.78;;;16.10;86.50;;;;;;4203941;28;20055;-52
2023/12/11 03:50:07;;;;;;;26.77;4.50;;;16.10;86.30;;;;;;4204332;27;20059;-53
2023/12/11 03:52:48;;;;;;;21.58;5.22;;;16.10;86.90;;;;;;4203626;28;20117;-52
2023/12/11 03:55:29;;;;;;;27.75;5.38;;;16.10;86.00;;;;;;4190036;28;20059;-52
2023/12/11 03:58:10;;;;;;;29.10;5.43;;;16.10;85.90;;;;;;4193497;28;20564;-53
2023/12/11 04:00:51;;;;;;;30.48;4.78;;;16.10;86.20;;;;;;4203724;28;20078;-54
2023/12/11 04:03:34;;;;;;;26.10;5.38;;;16.00;86.10;;;;;;4202503;28;20778;-51
2023/12/11 04:06:15;;;;;;;34.65;6.28;;;16.10;86.00;;;;;;4197667;28;20525;-54
2023/12/11 04:08:56;;;;;;;32.78;5.72;;;16.10;86.00;;;;;;4204541;28;20059;-52
2023/12/11 04:11:37;;;;;;;23.13;4.78;;;16.10;85.90;;;;;;4174373;28;20052;-52
2023/12/11 04:14:18;;;;;;;25.63;5.13;;;16.20;85.90;;;;;;4205381;28;20062;-52
2023/12/11 04:16:59;;;;;;;28.15;4.32;;;16.10;85.90;;;;;;4188539;28;20059;-51
2023/12/11 04:19:41;;;;;;;22.83;4.70;;;16.20;86.00;;;;;;4202180;28;20055;-51
2023/12/11 04:22:22;;;;;;;23.52;5.03;;;16.20;85.90;;;;;;4189398;28;20055;-51
2023/12/11 04:25:04;;;;;;;30.10;4.43;;;16.10;85.70;;;;;;4202080;28;20574;-52
2023/12/11 04:27:45;;;;;;;;;;;16.20;85.70;;;;;;4200672;28;20051;-52
2023/12/11 04:30:26;;;;;;;24.00;4.30;;;16.20;86.50;;;;;;4200046;28;19931;-54
2023/12/11 04:33:07;;;;;;;23.30;4.68;;;16.20;85.50;;;;;;4200598;28;20418;-53
2023/12/11 04:35:50;;;;;;;23.60;4.78;;;16.10;85.60;;;;;;4200337;28;20498;-53
2023/12/11 04:38:31;;;;;;;21.98;4.60;;;16.10;85.80;;;;;;4174768;28;20526;-53
2023/12/11 04:41:13;;;;;;;27.48;5.20;;;16.10;85.80;;;;;;4203316;28;20055;-51
2023/12/11 04:43:54;;;;;;;24.58;5.28;;;16.20;85.90;;;;;;4202248;28;20498;-54
2023/12/11 04:46:35;;;;;;;31.48;6.03;;;16.20;85.90;;;;;;4187299;28;20066;-51
2023/12/11 04:49:16;;;;;;;30.42;5.70;;;16.20;85.60;;;;;;4193863;28;20047;-54
2023/12/11 04:51:59;;;;;;;23.05;4.40;;;16.20;85.70;;;;;;4202094;28;20124;-52
2023/12/11 04:54:42;;;;;;;26.90;5.13;;;16.20;86.60;;;;;;4188034;28;20047;-54
2023/12/11 04:57:25;;;;;;;23.20;4.55;;;16.20;85.70;;;;;;4169390;28;20052;-52
2023/12/11 05:00:07;;;;;;;19.50;3.97;;;16.20;85.50;;;;;;4175236;28;20079;-53
2023/12/11 05:02:48;;;;;;;33.22;4.82;;;16.20;85.40;;;;;;4182302;28;20047;-53
2023/12/11 05:05:29;;;;;;;28.87;4.87;;;16.20;85.30;;;;;;4202512;27;20133;-55
2023/12/11 05:08:12;;;;;;;20.25;4.50;;;16.20;85.40;;;;;;4191377;28;20305;-55
2023/12/11 05:10:54;;;;;;;22.42;3.85;;;16.30;85.60;;;;;;4202132;28;20047;-52
2023/12/11 05:13:35;;;;;;;22.95;4.65;;;16.30;85.30;;;;;;4200306;27;20047;-54
2023/12/11 05:16:16;;;;;;;22.80;4.97;;;16.30;85.30;;;;;;4202630;27;20692;-55
2023/12/11 05:18:57;;;;;;;27.35;4.45;;;16.30;85.30;;;;;;4193203;28;20079;-54
2023/12/11 05:21:38;;;;;;;19.75;5.30;;;16.40;85.40;;;;;;4199734;28;20639;-52
2023/12/11 05:24:20;;;;;;;28.33;4.55;;;16.40;85.30;;;;;;4205658;28;20556;-52
2023/12/11 05:27:01;;;;;;;19.77;4.70;;;16.30;85.10;;;;;;4199900;28;20067;-54
2023/12/11 05:29:43;;;;;;;29.38;7.32;;;16.40;85.20;;;;;;4196254;28;20087;-52
2023/12/11 05:32:24;;;;;;;;;;;16.40;85.20;;;;;;4202180;28;20059;-54
2023/12/11 05:35:05;;;;;;;20.75;4.38;;;16.40;85.20;;;;;;4204191;28;19931;-53
2023/12/11 05:37:47;;;;;;;17.52;3.92;;;16.40;85.10;;;;;;4200303;28;20055;-54
2023/12/11 05:40:32;;;;;;;28.73;5.00;;;16.40;85.00;;;;;;4184611;28;20175;-55
2023/12/11 05:43:14;;;;;;;31.98;5.00;;;16.40;84.90;;;;;;4185095;28;20201;-52
2023/12/11 05:45:55;;;;;;;19.38;4.55;;;16.40;84.80;;;;;;4186733;28;20407;-53
2023/12/11 05:48:36;;;;;;;21.27;4.85;;;16.40;84.90;;;;;;4204993;28;20070;-53
2023/12/11 05:51:17;;;;;;;26.02;5.30;;;16.40;85.00;;;;;;4178082;28;20048;-52
2023/12/11 05:53:58;;;;;;;17.35;4.45;;;16.30;85.10;;;;;;4205473;28;20078;-50
2023/12/11 05:56:41;;;;;;;25.02;5.05;;;16.40;85.30;;;;;;4188995;28;20453;-51
2023/12/11 05:59:22;;;;;;;23.73;4.30;;;16.30;85.10;;;;;;4189256;28;20047;-53
2023/12/11 06:02:02;;;;;;;24.13;4.80;;;16.40;85.00;;;;;;4193004;28;20059;-50
2023/12/11 06:04:44;;;;;;;25.23;4.65;;;16.40;84.90;;;;;;4191056;28;20066;-55
2023/12/11 06:07:25;;;;;;;19.58;4.43;;;16.40;84.90;;;;;;4203038;28;20505;-51
2023/12/11 06:10:07;;;;;;;17.17;3.47;;;16.40;84.90;;;;;;4205264;28;20050;-52
2023/12/11 06:12:50;;;;;;;21.83;4.65;;;16.30;84.90;;;;;;4199430;28;20054;-52
2023/12/11 06:15:31;;;;;;;16.70;4.20;;;16.30;85.00;;;;;;4172711;28;20066;-51
2023/12/11 06:18:12;;;;;;;22.77;5.70;;;16.40;85.00;;;;;;4185514;28;20419;-52
2023/12/11 06:20:53;;;;;;;23.95;4.57;;;16.40;84.70;;;;;;4188951;28;20055;-52
2023/12/11 06:23:34;;;;;;;17.42;4.18;;;16.40;84.60;;;;;;4205848;27;20055;-51
2023/12/11 06:26:29;;;;;;;21.90;3.60;;;16.40;84.50;;;;;;4205979;28;20055;-53
2023/12/11 06:29:12;;;;;;;24.13;4.68;;;16.40;84.50;;;;;;4181308;28;20178;-50
2023/12/11 06:31:52;;;;;;;22.13;4.28;;;16.40;84.70;;;;;;4204367;28;20054;-53
2023/12/11 06:34:34;;;;;;;18.60;4.03;;;16.40;84.60;;;;;;4204259;28;20067;-53
2023/12/11 06:37:15;;;;;;;26.10;4.85;;;16.50;84.50;;;;;;4195160;28;20052;-49
2023/12/11 06:39:56;;;;;;;21.38;3.45;;;16.50;84.40;;;;;;4204964;28;20063;-50
2023/12/11 06:42:37;;;;;;;16.45;3.85;;;16.50;84.20;;;;;;4195931;28;20790;-53
2023/12/11 06:45:21;;;;;;;14.77;3.22;;;16.50;84.40;;;;;;4205793;28;20074;-54
2023/12/11 06:48:03;;;;;;;22.10;4.40;;;16.50;84.60;;;;;;4203214;28;20059;-52
2023/12/11 06:50:44;;;;;;;;;;;16.50;84.70;;;;;;4192520;28;20075;-51
2023/12/11 06:53:25;;;;;;;20.90;3.75;;;16.60;84.80;;;;;;4191670;28;19935;-52
2023/12/11 06:56:06;;;;;;;13.80;3.30;;;16.60;84.50;;;;;;4201523;28;20082;-51
2023/12/11 06:58:51;;;;;;;13.82;3.30;;;16.60;84.30;;;;;;4188655;28;20129;-55
2023/12/11 07:01:35;;;;;;;22.75;4.28;;;16.60;84.20;;;;;;4186290;28;20067;-52
2023/12/11 07:04:16;;;;;;;15.68;3.10;;;16.60;84.00;;;;;;4169002;28;20052;-54
2023/12/11 07:06:58;;;;;;;19.83;4.03;;;16.60;84.10;;;;;;4182786;28;20182;-54
2023/12/11 07:09:46;;;;;;;;;;;16.60;84.10;;;;;;4196731;28;20058;-52
2023/12/11 07:12:28;;;;;;;15.18;3.28;;;16.60;84.10;;;;;;4168554;28;19931;-51
2023/12/11 07:15:10;;;;;;;14.50;2.88;;;16.70;84.00;;;;;;4193353;28;20056;-51
2023/12/11 07:17:53;;;;;;;15.20;4.15;;;16.70;83.80;;;;;;4198088;28;20042;-52
2023/12/11 07:20:34;;;;;;;19.20;3.83;;;16.70;83.60;;;;;;4189939;28;20055;-53
2023/12/11 07:23:16;;;;;;;21.10;4.25;;;16.60;83.60;;;;;;4196397;27;20052;-51
2023/12/11 07:25:57;;;;;;;20.13;3.35;;;16.60;83.30;;;;;;4202558;28;20058;-52
2023/12/11 07:28:39;;;;;;;16.55;3.33;;;16.50;83.10;;;;;;4197072;27;20055;-50
2023/12/11 07:31:20;;;;;;;;;;;16.50;83.30;;;;;;4186203;28;20092;-51
2023/12/11 07:34:03;;;;;;;13.02;2.88;;;16.50;83.70;;;;;;4182945;28;19988;-51
2023/12/11 07:36:44;;;;;;;15.30;3.85;;;16.40;84.70;;;;;;4184703;28;20071;-53
2023/12/11 07:39:25;;;;;;;14.02;3.28;;;16.40;83.60;;;;;;4195005;27;20059;-51
2023/12/11 07:42:07;;;;;;;;;;;16.40;83.20;;;;;;4203154;28;20051;-52
2023/12/11 07:44:51;;;;;;;16.02;2.60;;;16.50;83.20;;;;;;4174791;28;19973;-51
2023/12/11 07:47:33;;;;;;;14.52;3.15;;;16.50;83.10;;;;;;4189604;28;20544;-54
2023/12/11 07:50:19;;;;;;;12.00;2.80;;;16.60;82.90;;;;;;4204410;28;20055;-53
2023/12/11 07:53:00;;;;;;;9.48;2.10;;;16.60;82.70;;;;;;4189412;28;20060;-53
2023/12/11 07:55:41;;;;;;;14.10;2.50;;;16.60;82.40;;;;;;4183099;28;20414;-53
2023/12/11 07:58:23;;;;;;;10.43;2.50;;;16.70;82.20;;;;;;4174919;28;20055;-51
2023/12/11 08:01:08;;;;;;;12.02;2.70;;;16.70;82.00;;;;;;4184934;28;20063;-52
2023/12/11 08:03:53;;;;;;;9.98;2.45;;;16.60;81.70;;;;;;4188666;28;20082;-51
2023/12/11 08:06:40;;;;;;;15.02;2.75;;;16.60;82.00;;;;;;4193108;27;20055;-51
2023/12/11 08:09:23;;;;;;;10.32;3.05;;;16.60;82.10;;;;;;4193122;28;20051;-51
2023/12/11 08:12:04;;;;;;;11.15;2.50;;;16.50;82.40;;;;;;4191022;27;20096;-51
2023/12/11 08:14:47;;;;;;;14.18;3.53;;;16.60;82.40;;;;;;4178914;28;20403;-55
2023/12/11 08:17:28;;;;;;;11.93;3.58;;;16.60;82.20;;;;;;4186158;28;20064;-53
2023/12/11 08:20:11;;;;;;;13.65;3.42;;;16.60;82.00;;;;;;4195215;28;20063;-54
2023/12/11 08:22:54;;;;;;;11.90;3.20;;;16.60;81.90;;;;;;4187448;28;20436;-52
2023/12/11 08:25:35;;;;;;;11.75;2.55;;;16.70;81.80;;;;;;4201702;28;20054;-51
2023/12/11 08:28:17;;;;;;;12.20;2.58;;;16.60;82.10;;;;;;4199845;27;20051;-51
2023/12/11 08:30:58;;;;;;;8.63;2.65;;;16.50;82.20;;;;;;4191290;28;20067;-51
2023/12/11 08:33:40;;;;;;;12.23;3.17;;;16.50;82.40;;;;;;4186431;28;20087;-51
2023/12/11 08:36:21;;;;;;;8.63;2.55;;;16.40;82.50;;;;;;4178725;28;20077;-50
2023/12/11 08:39:07;;;;;;;15.07;3.15;;;16.40;82.80;;;;;;4171712;28;20654;-51
2023/12/11 08:41:48;;;;;;;11.02;2.38;;;16.30;82.80;;;;;;4183075;28;20182;-51
2023/12/11 08:44:29;;;;;;;8.70;2.67;;;16.30;83.00;;;;;;4196430;28;20046;-52
2023/12/11 08:47:11;;;;;;;11.13;2.22;;;16.30;83.40;;;;;;4198885;28;20085;-51
2023/12/11 08:49:55;;;;;;;9.07;2.15;;;16.20;83.60;;;;;;4182453;28;20158;-51
2023/12/11 08:52:37;;;;;;;8.00;2.35;;;16.10;83.80;;;;;;4197862;28;20230;-50
2023/12/11 08:55:21;;;;;;;11.75;2.30;;;16.10;84.00;;;;;;4200545;28;20054;-52
2023/12/11 08:58:02;;;;;;;11.05;2.50;;;16.00;84.10;;;;;;4204801;28;20190;-57
2023/12/11 09:00:44;;;;;;;7.55;1.98;;;16.00;84.70;;;;;;4203668;28;20062;-53
2023/12/11 09:03:26;;;;;;;8.25;2.15;;;16.00;85.20;;;;;;4201614;28;20407;-59
2023/12/11 09:06:08;;;;;;;7.05;1.98;;;16.00;85.80;;;;;;4199891;28;20051;-58
2023/12/11 09:08:49;;;;;;;4.13;1.88;;;15.90;85.90;;;;;;4204527;28;20189;-57
2023/12/11 09:11:31;;;;;;;6.40;1.98;;;15.90;86.10;;;;;;4204262;28;20502;-59
2023/12/11 09:14:12;;;;;;;6.70;1.70;;;15.90;86.20;;;;;;4203576;28;20051;-51
2023/12/11 09:16:53;;;;;;;4.15;1.92;;;15.90;86.30;;;;;;4203325;28;20096;-50
2023/12/11 09:19:35;;;;;;;10.13;1.70;;;15.90;86.40;;;;;;4203473;28;20407;-52
2023/12/11 09:22:20;;;;;;;4.70;1.95;;;15.90;86.50;;;;;;4186496;28;20063;-53
2023/12/11 09:25:01;;;;;;;5.57;1.58;;;15.90;86.60;;;;;;4188400;28;20190;-51
2023/12/11 09:27:44;;;;;;;6.65;2.13;;;16.00;87.20;;;;;;4171474;28;20048;-53
2023/12/11 09:30:28;;;;;;;8.15;2.15;;;16.00;87.30;;;;;;4186117;28;20055;-52
2023/12/11 09:33:11;;;;;;;4.45;1.67;;;16.20;87.80;;;;;;4166121;28;24280;-49
2023/12/11 09:35:54;;;;;;;7.28;2.50;;;16.20;87.30;;;;;;4167109;28;20106;-51
2023/12/11 09:38:35;;;;;;;5.28;1.50;;;16.30;87.40;;;;;;4169330;28;20454;-50
2023/12/11 09:41:16;;;;;;;5.18;1.52;;;16.30;87.20;;;;;;4184042;28;20054;-50
2023/12/11 09:43:59;;;;;;;4.22;1.30;;;16.30;87.00;;;;;;4182263;28;20059;-52
2023/12/11 09:46:48;;;;;;;3.08;1.40;;;16.30;87.10;;;;;;4194507;28;20056;-54
2023/12/11 09:49:30;;;;;;;5.47;1.77;;;16.30;87.10;;;;;;4166753;28;20060;-54
2023/12/11 09:52:13;;;;;;;6.13;2.08;;;16.20;87.20;;;;;;4171761;28;20380;-52
2023/12/11 09:54:54;;;;;;;7.45;2.80;;;16.20;87.00;;;;;;4171049;28;20111;-50
2023/12/11 09:57:36;;;;;;;4.70;2.10;;;16.20;87.00;;;;;;4169775;28;20083;-49
2023/12/11 10:00:18;;;;;;;;;;;16.20;87.30;;;;;;4172383;28;20055;-51
2023/12/11 10:03:05;;;;;;;5.72;2.00;;;16.20;87.70;;;;;;4168661;28;20299;-50
2023/12/11 10:05:47;;;;;;;6.45;1.92;;;16.20;88.20;;;;;;4165983;28;20404;-51
2023/12/11 10:08:27;;;;;;;;;;;16.20;88.00;;;;;;4169981;28;20052;-53
2023/12/11 10:11:12;;;;;;;6.40;3.38;;;16.10;88.10;;;;;;4167419;28;19932;-53
2023/12/11 10:13:53;;;;;;;12.27;2.42;;;16.20;88.60;;;;;;4176783;28;20376;-54
2023/12/11 10:16:36;;;;;;;9.55;2.28;;;16.20;88.40;;;;;;4183393;28;20055;-53
2023/12/11 10:19:19;;;;;;;10.63;2.67;;;16.20;88.40;;;;;;4167552;28;20580;-52
2023/12/11 10:22:01;;;;;;;8.88;2.03;;;16.30;88.50;;;;;;4166442;28;20055;-58
2023/12/11 10:24:43;;;;;;;8.45;2.20;;;16.30;88.20;;;;;;4170517;28;20134;-53
2023/12/11 10:27:25;;;;;;;6.68;2.00;;;16.40;88.20;;;;;;4174463;28;20100;-52
2023/12/11 10:30:12;;;;;;;8.60;2.15;;;16.40;87.90;;;;;;4167865;28;20071;-55
2023/12/11 10:33:01;;;;;;;7.32;2.28;;;16.40;87.70;;;;;;4167914;28;20056;-58
2023/12/11 10:35:42;;;;;;;6.82;1.80;;;16.50;87.60;;;;;;4170731;28;20877;-52
2023/12/11 10:38:25;;;;;;;9.05;2.08;;;16.40;87.60;;;;;;4173993;28;20076;-59
2023/12/11 10:41:07;;;;;;;8.05;2.00;;;16.50;88.00;;;;;;4186059;28;20047;-51
2023/12/11 10:43:49;;;;;;;4.97;1.85;;;16.50;88.10;;;;;;4177835;28;20159;-56
2023/12/11 10:46:39;;;;;;;6.50;1.58;;;16.40;88.00;;;;;;4170568;28;20114;-56
2023/12/11 10:49:22;;;;;;;4.07;1.30;;;16.40;88.30;;;;;;4185125;28;20187;-56
2023/12/11 10:52:03;;;;;;;5.47;1.65;;;16.40;88.40;;;;;;4171503;28;20157;-55
2023/12/11 10:54:45;;;;;;;4.35;1.60;;;16.50;88.70;;;;;;4171984;28;20067;-52
2023/12/11 10:57:27;;;;;;;4.70;1.75;;;16.40;88.50;;;;;;4184478;28;20157;-55
2023/12/11 11:00:13;;;;;;;11.05;2.13;;;16.40;88.60;;;;;;4176582;28;20396;-56
2023/12/11 11:02:56;;;;;;;9.68;1.77;;;16.40;88.60;;;;;;4184396;28;20059;-52
2023/12/11 11:05:40;;;;;;;6.68;2.20;;;16.40;88.50;;;;;;4169222;28;20056;-54
2023/12/11 11:08:29;;;;;;;9.40;2.17;;;16.30;88.90;;;;;;4168080;28;20055;-55
2023/12/11 11:11:16;;;;;;;9.23;2.40;;;16.30;89.20;;;;;;4180615;28;20209;-56
2023/12/11 11:14:20;;;;;;;15.73;3.72;;;16.30;89.50;;;;;;4186835;28;20482;-58
2023/12/11 11:17:01;;;;;;;12.35;3.80;;;16.20;89.40;;;;;;4179070;28;20109;-52
2023/12/11 11:20:09;;;;;;;10.35;3.42;;;16.20;89.60;;;;;;4173927;28;20052;-53
2023/12/11 11:22:52;;;;;;;9.65;3.22;;;16.20;89.70;;;;;;4167967;28;20126;-51
2023/12/11 11:25:36;;;;;;;12.38;2.80;;;16.20;89.90;;;;;;4169399;28;20099;-53
2023/12/11 11:28:36;;;;;;;12.45;3.40;;;16.20;89.90;;;;;;4168251;28;20488;-53
2023/12/11 11:31:17;;;;;;;13.75;3.35;;;16.10;90.00;;;;;;4174872;28;20059;-53
2023/12/11 11:34:02;;;;;;;9.75;2.85;;;16.10;90.00;;;;;;4172243;28;20063;-51
2023/12/11 11:36:47;;;;;;;10.63;3.08;;;16.00;89.90;;;;;;4174751;28;20063;-53
2023/12/11 11:39:58;;;;;;;11.02;3.08;;;16.00;89.70;;;;;;4180556;28;20071;-52
2023/12/11 11:42:39;;;;;;;6.72;2.08;;;16.00;90.00;;;;;;4168211;28;20048;-54
2023/12/11 11:45:20;;;;;;;10.70;2.60;;;15.90;90.10;;;;;;4168527;28;20068;-50
2023/12/11 11:48:04;;;;;;;10.77;2.67;;;15.90;90.10;;;;;;4168993;28;20080;-52
2023/12/11 11:50:54;;;;;;;9.43;2.65;;;15.90;90.10;;;;;;4168125;28;21032;-54
2023/12/11 11:53:37;;;;;;;7.00;2.13;;;15.90;90.10;;;;;;4174161;28;20178;-50
2023/12/11 11:56:20;;;;;;;8.10;2.15;;;15.80;90.10;;;;;;4170734;28;20052;-52
2023/12/11 11:59:05;;;;;;;11.90;2.10;;;15.80;90.40;;;;;;4173994;28;20090;-54
2023/12/11 12:01:50;;;;;;;6.05;2.45;;;15.80;90.00;;;;;;4173509;28;20069;-53
2023/12/11 12:04:34;;;;;;;7.28;1.92;;;15.70;90.00;;;;;;4171909;28;20146;-50
2023/12/11 12:07:15;;;;;;;9.15;1.90;;;15.70;90.10;;;;;;4170954;28;20064;-53
2023/12/11 12:09:59;;;;;;;5.95;2.03;;;15.70;90.10;;;;;;4172554;28;20079;-51
2023/12/11 12:12:41;;;;;;;6.68;2.55;;;15.70;90.10;;;;;;4178259;28;20056;-50
2023/12/11 12:15:23;;;;;;;4.43;1.25;;;15.70;90.10;;;;;;4174133;28;20063;-54
2023/12/11 12:18:07;;;;;;;5.60;1.30;;;15.60;90.00;;;;;;4179149;28;20100;-67
2023/12/11 12:21:02;;;;;;;10.98;2.17;;;15.60;90.20;;;;;;4180965;28;20162;-65
2023/12/11 12:23:43;;;;;;;6.28;1.73;;;15.60;90.20;;;;;;4167408;28;20044;-67
2023/12/11 12:26:24;;;;;;;6.32;1.45;;;15.70;90.50;;;;;;4183972;28;20162;-63
2023/12/11 12:29:09;;;;;;;6.75;1.52;;;15.70;90.50;;;;;;4168117;28;20052;-69
2023/12/11 12:31:51;;;;;;;6.15;1.95;;;15.70;90.40;;;;;;4173461;28;20108;-68
2023/12/11 12:34:35;;;;;;;4.45;1.65;;;15.70;90.50;;;;;;4178546;28;20055;-69
2023/12/11 12:37:17;;;;;;;5.57;1.70;;;15.70;90.40;;;;;;4180849;28;20599;-66
2023/12/11 12:39:58;;;;;;;5.53;1.45;;;15.80;90.40;;;;;;4173492;28;20056;-66
2023/12/11 12:42:40;;;;;;;6.47;1.58;;;15.80;90.40;;;;;;4183258;28;20055;-67
2023/12/11 12:45:28;;;;;;;8.57;1.90;;;15.80;90.50;;;;;;4169060;28;20539;-67
2023/12/11 12:48:13;;;;;;;10.52;2.10;;;15.80;90.50;;;;;;4179931;28;20098;-67
2023/12/11 12:51:04;;;;;;;;;;;15.80;90.50;;;;;;4170726;28;20064;-61
2023/12/11 12:53:49;;;;;;;8.25;1.80;;;15.80;90.40;;;;;;4172136;28;19931;-65
2023/12/11 12:56:30;;;;;;;11.95;2.33;;;15.80;90.40;;;;;;4181750;28;20101;-67
2023/12/11 12:59:11;;;;;;;7.53;1.95;;;15.90;90.40;;;;;;4164316;28;20055;-51
2023/12/11 13:01:53;;;;;;;;;;;15.90;90.30;;;;;;4168701;28;20507;-57
2023/12/11 13:04:49;;;;;;;5.55;1.42;;;15.90;90.30;;;;;;4169658;28;20418;-66
2023/12/11 13:07:30;;;;;;;10.05;1.80;;;15.90;90.30;;;;;;4160054;28;20449;-57
2023/12/11 13:10:13;;;;;;;;;;;16.00;90.20;;;;;;4167608;28;20055;-58
2023/12/11 13:12:57;;;;;;;10.18;1.63;;;16.10;90.10;;;;;;4170190;28;20390;-59
2023/12/11 13:15:40;;;;;;;8.35;1.95;;;16.10;90.00;;;;;;4167525;28;20126;-65
2023/12/11 13:18:24;;;;;;;5.38;2.00;;;16.20;89.80;;;;;;4156666;28;20186;-59
2023/12/11 13:21:05;;;;;;;9.45;2.67;;;16.20;89.40;;;;;;4179666;28;20051;-62
2023/12/11 13:23:47;;;;;;;6.13;1.85;;;16.20;89.10;;;;;;4172126;28;20059;-62
2023/12/11 13:26:29;;;;;;;7.43;2.20;;;16.30;88.90;;;;;;4180311;28;20438;-58
2023/12/11 13:29:10;;;;;;;11.88;1.63;;;16.30;88.80;;;;;;4167802;28;20082;-64
2023/12/11 13:31:55;;;;;;;10.95;2.38;;;16.30;89.20;;;;;;4171544;28;20068;-61
2023/12/11 13:34:37;;;;;;;7.80;1.67;;;16.40;89.00;;;;;;4179979;28;20105;-59
2023/12/11 13:37:19;;;;;;;7.07;1.75;;;16.60;88.60;;;;;;4183921;28;20055;-57
2023/12/11 13:40:00;;;;;;;10.55;2.20;;;16.60;88.30;;;;;;4166476;28;20059;-61
2023/12/11 13:42:42;;;;;;;7.32;1.85;;;16.70;88.10;;;;;;4172933;28;20051;-63
2023/12/11 13:45:23;;;;;;;;;;;16.70;88.10;;;;;;4172488;28;20064;-63
2023/12/11 13:48:04;;;;;;;4.50;1.25;;;16.80;88.20;;;;;;4176036;28;19932;-59
2023/12/11 13:50:50;;;;;;;6.68;1.58;;;16.80;88.20;;;;;;4171880;28;20487;-67
2023/12/11 13:53:36;;;;;;;5.63;1.63;;;16.90;88.00;;;;;;4166639;28;20055;-62
2023/12/11 13:56:17;;;;;;;5.20;1.52;;;16.90;87.90;;;;;;4146352;28;20079;-68
2023/12/11 13:58:58;;;;;;;4.35;1.75;;;16.90;87.80;;;;;;4179547;28;20067;-67
2023/12/11 14:01:41;;;;;;;7.72;1.25;;;16.90;87.90;;;;;;4178429;28;20474;-60